Time;durP1;ratioP1;P1;durP2;ratioP2;P2;SDS_P1;SDS_P2;PMS_P1;PMS_P2;Temp;Humidity;BMP_temperature;BMP_pressure;BME280_temperature;BME280_humidity;BME280_pressure;Samples;Min_cycle;Max_cycle;Signal;HPM_P1;HPM_P2
2023/01/19 00:01:32;;;;;;;;;;;;;;;;;;5024923;28;20099;-82
2023/01/19 00:04:01;;;;;;;;;;;;;;;;;;5021353;28;19951;-82
2023/01/19 00:06:27;;;;;;;;;;;;;;;;;;5005357;28;19897;-82
2023/01/19 00:08:54;;;;;;;;;;;;;;;;;;5022576;28;19976;-82
2023/01/19 00:11:22;;;;;;;;;;;;;;;;;;5006394;28;19917;-82
2023/01/19 00:13:52;;;;;;;;;;;;;;;;;;5006770;28;20001;-81
2023/01/19 00:16:21;;;;;;;;;;;;;;;;;;5001563;28;19914;-81
2023/01/19 00:18:51;;;;;;;;;;;;;;;;;;5003157;28;19897;-79
2023/01/19 00:21:20;;;;;;;;;;;;;;;;;;5026214;28;19925;-81
2023/01/19 00:23:51;;;;;;;;;;;;;;;;;;5016845;28;19980;-82
2023/01/19 00:26:21;;;;;;;;;;;;;;;;;;5005626;28;19913;-81
2023/01/19 00:28:49;;;;;;;;;;;;;;;;;;5036299;28;19897;-81
2023/01/19 00:31:20;;;;;;;;;;;;;;;;;;5021539;28;19928;-82
2023/01/19 00:33:48;;;;;;;;;;;;;;;;;;5036032;28;19952;-80
2023/01/19 00:36:17;;;;;;;;;;;;;;;;;;5026403;28;19909;-80
2023/01/19 00:38:47;;;;;;;;;;;;;;;;;;5043713;28;19913;-81
2023/01/19 00:41:13;;;;;;;;;;;;;;;;;;5028056;28;19941;-81
2023/01/19 00:43:39;;;;;;;;;;;;;;;;;;5038867;28;19921;-80
2023/01/19 00:46:11;;;;;;;;;;;;;;;;;;5057558;28;20381;-80
2023/01/19 00:48:40;;;;;;;;;;;;;;;;;;5022504;28;19897;-80
2023/01/19 00:51:13;;;;;;;;;;;;;;;;;;5025670;28;19897;-80
2023/01/19 00:53:46;;;;;;;;;;;;;;;;;;5027471;28;19913;-81
2023/01/19 00:56:12;;;;;;;;;;;;;;;;;;5025489;28;19913;-81
2023/01/19 00:58:38;;;;;;;;;;;;;;;;;;5025904;28;19897;-81
2023/01/19 01:01:07;;;;;;;;;;;;;;;;;;5025632;28;19945;-81
2023/01/19 01:03:34;;;;;;;;;;;;;;;;;;5008603;28;19897;-81
2023/01/19 01:06:05;;;;;;;;;;;;;;;;;;5042289;28;19897;-81
2023/01/19 01:08:38;;;;;;;;;;;;;;;;;;5023709;28;19948;-82
2023/01/19 01:11:09;;;;;;;;;;;;;;;;;;5021556;28;19920;-82
2023/01/19 01:13:38;;;;;;;;;;;;;;;;;;5003356;28;19917;-82
2023/01/19 01:16:04;;;;;;;;;;;;;;;;;;5028768;28;19972;-82
2023/01/19 01:18:33;;;;;;;;;;;;;;;;;;5024355;28;19913;-80
2023/01/19 01:21:02;;;;;;;;;;;;;;;;;;5001606;28;19925;-80
2023/01/19 01:23:34;;;;;;;;;;;;;;;;;;5000555;28;19917;-81
2023/01/19 01:26:03;;;;;;;;;;;;;;;;;;5016307;28;19917;-81
2023/01/19 01:28:29;;;;;;;;;;;;;;;;;;4998960;28;19919;-80
2023/01/19 01:30:55;;;;;;;;;;;;;;;;;;5015384;28;19920;-81
2023/01/19 01:33:21;;;;;;;;;;;;;;;;;;5051673;28;19917;-82
2023/01/19 01:35:47;;;;;;;;;;;;;;;;;;5019972;28;19984;-81
2023/01/19 01:38:16;;;;;;;;;;;;;;;;;;5044458;28;19920;-81
2023/01/19 01:40:42;;;;;;;;;;;;;;;;;;5024054;28;19913;-81
2023/01/19 01:43:09;;;;;;;;;;;;;;;;;;5021387;28;19913;-81
2023/01/19 01:45:35;;;;;;;;;;;;;;;;;;5021894;28;19920;-82
2023/01/19 01:48:01;;;;;;;;;;;;;;;;;;5038126;28;19913;-81
2023/01/19 01:50:31;;;;;;;;;;;;;;;;;;5035862;28;19913;-81
2023/01/19 01:52:57;;;;;;;;;;;;;;;;;;5002825;28;19940;-80
2023/01/19 01:55:24;;;;;;;;;;;;;;;;;;5006573;28;19913;-81
2023/01/19 01:57:51;;;;;;;;;;;;;;;;;;5022436;28;19996;-81
2023/01/19 02:00:22;;;;;;;;;;;;;;;;;;5021712;28;20464;-81
2023/01/19 02:02:58;;;;;;;;;;;;;;;;;;5022179;28;19912;-81
2023/01/19 02:05:24;;;;;;;;;;;;;;;;;;5036578;28;20472;-81
2023/01/19 02:13:25;;;;;;;;;;;;;;;;;;5059440;28;19917;-82
2023/01/19 02:15:51;;;;;;;;;;;;;;;;;;4997476;28;19917;-80
2023/01/19 02:18:17;;;;;;;;;;;;;;;;;;4996686;28;19956;-81
2023/01/19 02:20:43;;;;;;;;;;;;;;;;;;4995943;28;19925;-80
2023/01/19 02:23:14;;;;;;;;;;;;;;;;;;4999704;28;19933;-81
2023/01/19 02:25:40;;;;;;;;;;;;;;;;;;5030225;28;19921;-81
2023/01/19 02:28:08;;;;;;;;;;;;;;;;;;5010965;28;19913;-81
2023/01/19 02:33:30;;;;;;;;;;;;;;;;;;5202869;23;20061;-83
2023/01/19 02:35:56;;;;;;;;;;;;;;;;;;5060449;28;19919;-83
2023/01/19 02:38:23;;;;;;;;;;;;;;;;;;5093555;28;19917;-83
2023/01/19 02:40:48;;;;;;;;;;;;;;;;;;5054398;28;19913;-83
2023/01/19 02:43:16;;;;;;;;;;;;;;;;;;5056875;28;20323;-83
2023/01/19 02:45:42;;;;;;;;;;;;;;;;;;5059088;28;19924;-83
2023/01/19 02:48:08;;;;;;;;;;;;;;;;;;5044508;28;19896;-83
2023/01/19 02:50:40;;;;;;;;;;;;;;;;;;5028718;28;19913;-83
2023/01/19 02:55:48;;;;;;;;;;;;;;;;;;5487631;23;19921;-84
2023/01/19 02:58:14;;;;;;;;;;;;;;;;;;5077126;28;19897;-84
2023/01/19 03:00:41;;;;;;;;;;;;;;;;;;5076737;28;19904;-84
2023/01/19 03:03:13;;;;;;;;;;;;;;;;;;5042538;28;19948;-84
2023/01/19 03:05:40;;;;;;;;;;;;;;;;;;5041635;28;19928;-84
2023/01/19 03:14:41;;;;;;;;;;;;;;;;;;5684394;23;19909;-84
2023/01/19 03:17:13;;;;;;;;;;;;;;;;;;5062852;28;19927;-84
2023/01/19 03:19:39;;;;;;;;;;;;;;;;;;5082097;28;19912;-84
2023/01/19 03:22:08;;;;;;;;;;;;;;;;;;5071168;28;20353;-84
2023/01/19 03:24:36;;;;;;;;;;;;;;;;;;5060111;28;19900;-84
2023/01/19 03:27:04;;;;;;;;;;;;;;;;;;5043425;28;19952;-85
2023/01/19 03:29:33;;;;;;;;;;;;;;;;;;5058244;28;20333;-84
2023/01/19 03:32:02;;;;;;;;;;;;;;;;;;5042127;28;19913;-84
2023/01/19 03:34:33;;;;;;;;;;;;;;;;;;5074454;28;19917;-84
2023/01/19 03:36:58;;;;;;;;;;;;;;;;;;5048417;28;19919;-84
2023/01/19 03:39:24;;;;;;;;;;;;;;;;;;5030634;28;19913;-83
2023/01/19 03:41:50;;;;;;;;;;;;;;;;;;5020177;28;19913;-82
2023/01/19 03:44:15;;;;;;;;;;;;;;;;;;5034769;28;19913;-82
2023/01/19 03:46:41;;;;;;;;;;;;;;;;;;5056938;28;19905;-82
2023/01/19 03:49:07;;;;;;;;;;;;;;;;;;5059350;28;19901;-84
2023/01/19 03:51:33;;;;;;;;;;;;;;;;;;5026038;28;19951;-83
2023/01/19 03:54:00;;;;;;;;;;;;;;;;;;5074176;28;19933;-83
2023/01/19 03:56:25;;;;;;;;;;;;;;;;;;5078721;28;19904;-82
2023/01/19 03:58:51;;;;;;;;;;;;;;;;;;5045659;28;19927;-83
2023/01/19 04:01:16;;;;;;;;;;;;;;;;;;5045255;28;19905;-83
2023/01/19 04:03:42;;;;;;;;;;;;;;;;;;5075199;28;19921;-83
2023/01/19 04:06:08;;;;;;;;;;;;;;;;;;5050936;28;19981;-82
2023/01/19 04:08:33;;;;;;;;;;;;;;;;;;5072300;28;19917;-83
2023/01/19 04:10:59;;;;;;;;;;;;;;;;;;5043664;28;19901;-83
2023/01/19 04:13:27;;;;;;;;;;;;;;;;;;5017218;28;19924;-83
2023/01/19 04:15:55;;;;;;;;;;;;;;;;;;5050128;28;19928;-83
2023/01/19 04:18:20;;;;;;;;;;;;;;;;;;5052832;28;19914;-83
2023/01/19 04:20:46;;;;;;;;;;;;;;;;;;5036822;28;19976;-83
2023/01/19 04:23:12;;;;;;;;;;;;;;;;;;5036250;28;19917;-83
2023/01/19 04:25:41;;;;;;;;;;;;;;;;;;5051184;28;19914;-83
2023/01/19 04:28:06;;;;;;;;;;;;;;;;;;5054608;28;20045;-82
2023/01/19 04:30:32;;;;;;;;;;;;;;;;;;5050310;28;19936;-82
2023/01/19 04:32:57;;;;;;;;;;;;;;;;;;5049663;28;19956;-82
2023/01/19 04:35:22;;;;;;;;;;;;;;;;;;5049647;28;19920;-83
2023/01/19 04:37:48;;;;;;;;;;;;;;;;;;5034256;28;19912;-82
2023/01/19 04:40:13;;;;;;;;;;;;;;;;;;5038936;28;19901;-83
2023/01/19 04:42:40;;;;;;;;;;;;;;;;;;5056774;28;20397;-83
2023/01/19 04:45:05;;;;;;;;;;;;;;;;;;5053536;28;19913;-84
2023/01/19 04:47:31;;;;;;;;;;;;;;;;;;5051859;28;19924;-82
2023/01/19 04:49:56;;;;;;;;;;;;;;;;;;5051217;28;19913;-83
2023/01/19 04:52:22;;;;;;;;;;;;;;;;;;5018665;28;20380;-82
2023/01/19 04:54:47;;;;;;;;;;;;;;;;;;5041886;28;19924;-84
2023/01/19 04:57:16;;;;;;;;;;;;;;;;;;5060737;28;19923;-84
2023/01/19 04:59:44;;;;;;;;;;;;;;;;;;5041436;28;19920;-83
2023/01/19 05:02:10;;;;;;;;;;;;;;;;;;5072938;28;19948;-84
2023/01/19 05:04:36;;;;;;;;;;;;;;;;;;5030851;28;19913;-84
2023/01/19 05:07:02;;;;;;;;;;;;;;;;;;5031044;28;19913;-83
2023/01/19 05:09:27;;;;;;;;;;;;;;;;;;5052000;28;19913;-83
2023/01/19 05:11:53;;;;;;;;;;;;;;;;;;5072286;28;19913;-84
2023/01/19 05:14:19;;;;;;;;;;;;;;;;;;5041095;28;19916;-83
2023/01/19 05:16:45;;;;;;;;;;;;;;;;;;5074429;28;19920;-83
2023/01/19 05:19:10;;;;;;;;;;;;;;;;;;5058031;28;19912;-84
2023/01/19 05:21:36;;;;;;;;;;;;;;;;;;5041741;28;19919;-84
2023/01/19 05:24:03;;;;;;;;;;;;;;;;;;5059422;28;19916;-83
2023/01/19 05:26:28;;;;;;;;;;;;;;;;;;5060674;28;19913;-83
2023/01/19 05:28:55;;;;;;;;;;;;;;;;;;5060425;28;19927;-83
2023/01/19 05:31:20;;;;;;;;;;;;;;;;;;5042847;28;19924;-83
2023/01/19 05:33:47;;;;;;;;;;;;;;;;;;5055844;28;19984;-83
2023/01/19 05:36:13;;;;;;;;;;;;;;;;;;5038804;28;20378;-83
2023/01/19 05:38:39;;;;;;;;;;;;;;;;;;5038737;28;19914;-83
2023/01/19 05:41:05;;;;;;;;;;;;;;;;;;5020439;28;19939;-83
2023/01/19 05:43:30;;;;;;;;;;;;;;;;;;5036967;28;19924;-82
2023/01/19 05:45:56;;;;;;;;;;;;;;;;;;5046963;28;19913;-82
2023/01/19 05:48:21;;;;;;;;;;;;;;;;;;5047010;28;20047;-82
2023/01/19 05:50:48;;;;;;;;;;;;;;;;;;5045578;28;19913;-82
2023/01/19 05:53:13;;;;;;;;;;;;;;;;;;5027765;28;19925;-82
2023/01/19 05:55:39;;;;;;;;;;;;;;;;;;5045615;28;20281;-82
2023/01/19 05:58:04;;;;;;;;;;;;;;;;;;5047313;28;19944;-82
2023/01/19 06:00:30;;;;;;;;;;;;;;;;;;5031073;28;19914;-83
2023/01/19 06:02:55;;;;;;;;;;;;;;;;;;5031332;28;19920;-82
2023/01/19 06:05:20;;;;;;;;;;;;;;;;;;5031554;28;20414;-82
2023/01/19 06:07:46;;;;;;;;;;;;;;;;;;5049602;28;19913;-82
2023/01/19 06:10:12;;;;;;;;;;;;;;;;;;5050187;28;20155;-83
2023/01/19 06:12:37;;;;;;;;;;;;;;;;;;5049649;28;19936;-83
2023/01/19 06:15:03;;;;;;;;;;;;;;;;;;5031588;28;19917;-82
2023/01/19 06:17:28;;;;;;;;;;;;;;;;;;5046234;28;19967;-82
2023/01/19 06:19:54;;;;;;;;;;;;;;;;;;5027974;28;20445;-83
2023/01/19 06:22:19;;;;;;;;;;;;;;;;;;5051080;28;19937;-83
2023/01/19 06:24:45;;;;;;;;;;;;;;;;;;5040736;28;19913;-83
2023/01/19 06:27:10;;;;;;;;;;;;;;;;;;5073927;28;19942;-82
2023/01/19 06:29:36;;;;;;;;;;;;;;;;;;5056116;28;19912;-82
2023/01/19 06:32:02;;;;;;;;;;;;;;;;;;5070582;28;20393;-83
2023/01/19 06:34:27;;;;;;;;;;;;;;;;;;5052178;28;19921;-83
2023/01/19 06:36:53;;;;;;;;;;;;;;;;;;5068848;28;19912;-83
2023/01/19 06:39:21;;;;;;;;;;;;;;;;;;5072901;28;19923;-83
2023/01/19 06:41:47;;;;;;;;;;;;;;;;;;5033922;28;19913;-83
2023/01/19 06:44:13;;;;;;;;;;;;;;;;;;5050010;28;19956;-82
2023/01/19 06:46:38;;;;;;;;;;;;;;;;;;5047904;28;19920;-82
2023/01/19 06:49:04;;;;;;;;;;;;;;;;;;5030413;28;19929;-82
2023/01/19 06:51:29;;;;;;;;;;;;;;;;;;5025452;28;19913;-82
2023/01/19 06:53:54;;;;;;;;;;;;;;;;;;5041159;28;19917;-81
2023/01/19 06:56:20;;;;;;;;;;;;;;;;;;5028915;28;19984;-81
2023/01/19 06:58:45;;;;;;;;;;;;;;;;;;5057703;28;19913;-81
2023/01/19 07:01:11;;;;;;;;;;;;;;;;;;5056611;28;19913;-82
2023/01/19 07:03:37;;;;;;;;;;;;;;;;;;5061269;28;19912;-81
2023/01/19 07:06:05;;;;;;;;;;;;;;;;;;5058384;28;19916;-81
2023/01/19 07:08:30;;;;;;;;;;;;;;;;;;5060584;28;19912;-81
2023/01/19 07:10:56;;;;;;;;;;;;;;;;;;5062128;28;19997;-82
2023/01/19 07:13:21;;;;;;;;;;;;;;;;;;5059770;28;20306;-81
2023/01/19 07:15:46;;;;;;;;;;;;;;;;;;5041962;28;19924;-81
2023/01/19 07:18:12;;;;;;;;;;;;;;;;;;5025980;28;19916;-81
2023/01/19 07:20:37;;;;;;;;;;;;;;;;;;5063749;28;19912;-83
2023/01/19 07:23:03;;;;;;;;;;;;;;;;;;5034686;28;19993;-82
2023/01/19 07:25:28;;;;;;;;;;;;;;;;;;5037130;28;19972;-83
2023/01/19 07:27:54;;;;;;;;;;;;;;;;;;5053483;28;19923;-82
2023/01/19 07:30:19;;;;;;;;;;;;;;;;;;5041300;28;19944;-82
2023/01/19 07:32:45;;;;;;;;;;;;;;;;;;5045494;28;19913;-82
2023/01/19 07:35:10;;;;;;;;;;;;;;;;;;5045317;28;19917;-82
2023/01/19 07:37:36;;;;;;;;;;;;;;;;;;5016948;28;19913;-82
2023/01/19 07:40:01;;;;;;;;;;;;;;;;;;5035732;28;19913;-82
2023/01/19 07:42:27;;;;;;;;;;;;;;;;;;5002165;28;19924;-82
2023/01/19 07:44:53;;;;;;;;;;;;;;;;;;5051936;28;19924;-82
2023/01/19 07:47:19;;;;;;;;;;;;;;;;;;5035403;28;19913;-83
2023/01/19 07:49:44;;;;;;;;;;;;;;;;;;5034751;28;19976;-83
2023/01/19 07:52:10;;;;;;;;;;;;;;;;;;5017396;28;19913;-82
2023/01/19 07:54:35;;;;;;;;;;;;;;;;;;5021062;28;19917;-82
2023/01/19 07:57:01;;;;;;;;;;;;;;;;;;5034945;28;19913;-82
2023/01/19 07:59:26;;;;;;;;;;;;;;;;;;5027925;28;19913;-82
2023/01/19 08:01:52;;;;;;;;;;;;;;;;;;5027129;28;20382;-82
2023/01/19 08:04:18;;;;;;;;;;;;;;;;;;5043464;28;19920;-82
2023/01/19 08:06:43;;;;;;;;;;;;;;;;;;5026411;28;19913;-81
2023/01/19 08:09:10;;;;;;;;;;;;;;;;;;5049130;28;19898;-81
2023/01/19 08:11:36;;;;;;;;;;;;;;;;;;5037488;28;19913;-82
2023/01/19 08:14:01;;;;;;;;;;;;;;;;;;5020086;28;19917;-82
2023/01/19 08:16:26;;;;;;;;;;;;;;;;;;5037922;28;19940;-82
2023/01/19 08:18:52;;;;;;;;;;;;;;;;;;5054152;28;19993;-79
2023/01/19 08:21:17;;;;;;;;;;;;;;;;;;5066322;28;19909;-83
2023/01/19 08:23:44;;;;;;;;;;;;;;;;;;5038886;28;19919;-82
2023/01/19 08:26:09;;;;;;;;;;;;;;;;;;5069975;28;19913;-81
2023/01/19 08:28:35;;;;;;;;;;;;;;;;;;5043908;28;19913;-82
2023/01/19 08:31:00;;;;;;;;;;;;;;;;;;5023289;28;19948;-81
2023/01/19 08:33:26;;;;;;;;;;;;;;;;;;5127685;23;20000;-82
2023/01/19 08:35:52;;;;;;;;;;;;;;;;;;5075091;28;19919;-82
2023/01/19 08:38:18;;;;;;;;;;;;;;;;;;5077165;28;19913;-82
2023/01/19 08:40:43;;;;;;;;;;;;;;;;;;5061259;28;19946;-83
2023/01/19 08:43:09;;;;;;;;;;;;;;;;;;5041988;28;19897;-83
2023/01/19 08:45:36;;;;;;;;;;;;;;;;;;5075006;28;19919;-82
2023/01/19 08:48:01;;;;;;;;;;;;;;;;;;5039940;28;19944;-82
2023/01/19 08:50:30;;;;;;;;;;;;;;;;;;5074377;28;19958;-81
2023/01/19 08:52:56;;;;;;;;;;;;;;;;;;5056105;28;19897;-79
2023/01/19 08:55:22;;;;;;;;;;;;;;;;;;5072928;28;19951;-82
2023/01/19 08:57:48;;;;;;;;;;;;;;;;;;5057039;28;19913;-82
2023/01/19 09:00:13;;;;;;;;;;;;;;;;;;5062064;28;19924;-83
2023/01/19 09:02:40;;;;;;;;;;;;;;;;;;5030568;28;19912;-84
2023/01/19 09:05:06;;;;;;;;;;;;;;;;;;5045727;28;19913;-84
2023/01/19 09:07:31;;;;;;;;;;;;;;;;;;5029221;28;19897;-81
2023/01/19 09:09:57;;;;;;;;;;;;;;;;;;5030353;28;19912;-83
2023/01/19 09:12:24;;;;;;;;;;;;;;;;;;5043353;28;19913;-83
2023/01/19 09:14:50;;;;;;;;;;;;;;;;;;5025380;28;19988;-82
2023/01/19 09:17:16;;;;;;;;;;;;;;;;;;5061559;28;19924;-83
2023/01/19 09:19:43;;;;;;;;;;;;;;;;;;5043063;28;19920;-84
2023/01/19 09:22:09;;;;;;;;;;;;;;;;;;5004680;28;19967;-79
2023/01/19 09:24:35;;;;;;;;;;;;;;;;;;5035899;28;19968;-79
2023/01/19 09:27:01;;;;;;;;;;;;;;;;;;5035713;28;20334;-79
2023/01/19 09:29:26;;;;;;;;;;;;;;;;;;5035731;28;20010;-79
2023/01/19 09:31:51;;;;;;;;;;;;;;;;;;5054926;28;19919;-78
2023/01/19 09:34:17;;;;;;;;;;;;;;;;;;5055612;28;19916;-79
2023/01/19 09:36:42;;;;;;;;;;;;;;;;;;5043731;28;19948;-79
2023/01/19 09:39:08;;;;;;;;;;;;;;;;;;5038458;28;19913;-77
2023/01/19 09:41:33;;;;;;;;;;;;;;;;;;5010416;28;19975;-78
2023/01/19 09:43:59;;;;;;;;;;;;;;;;;;5018148;28;19920;-78
2023/01/19 09:46:24;;;;;;;;;;;;;;;;;;5028456;28;19972;-83
2023/01/19 09:51:39;;;;;;;;;;;;;;;;;;5792853;23;19980;-83
2023/01/19 09:56:40;;;;;;;;;;;;;;;;;;5742643;23;19968;-84
2023/01/19 09:59:06;;;;;;;;;;;;;;;;;;5235798;23;19925;-83
2023/01/19 10:01:34;;;;;;;;;;;;;;;;;;5008708;28;19909;-84
2023/01/19 10:04:03;;;;;;;;;;;;;;;;;;5024454;28;19917;-83
2023/01/19 10:06:33;;;;;;;;;;;;;;;;;;4992715;28;19917;-84
2023/01/19 10:17:05;;;;;;;;;;;;;;;;;;5803402;23;19925;-84
2023/01/19 10:22:16;;;;;;;;;;;;;;;;;;5688350;23;19909;-84
2023/01/19 11:14:01;;;;;;;;;;;;;;;;;;6001648;23;19917;-85
2023/01/19 11:16:33;;;;;;;;;;;;;;;;;;5373179;23;19924;-85
2023/01/19 11:21:40;;;;;;;;;;;;;;;;;;6059745;23;19920;-83
2023/01/19 11:24:15;;;;;;;;;;;;;;;;;;5258100;23;19913;-84
2023/01/19 11:40:01;;;;;;;;;;;;;;;;;;5150332;23;19908;-84
2023/01/19 11:48:42;;;;;;;;;;;;;;;;;;5573103;23;19924;-84
2023/01/19 11:51:14;;;;;;;;;;;;;;;;;;5080945;28;19900;-83
2023/01/19 11:56:39;;;;;;;;;;;;;;;;;;5554890;23;19909;-85
2023/01/19 11:59:09;;;;;;;;;;;;;;;;;;5316235;23;19925;-84
2023/01/19 12:27:02;;;;;;;;;;;;;;;;;;6063062;23;19990;-83
2023/01/19 12:43:15;;;;;;;;;;;;;;;;;;5801525;23;19908;-86
2023/01/19 12:45:46;;;;;;;;;;;;;;;;;;5047886;28;19900;-84
2023/01/19 12:48:37;;;;;;;;;;;;;;;;;;5063646;28;20390;-84
2023/01/19 12:51:09;;;;;;;;;;;;;;;;;;5050078;28;19919;-83
2023/01/19 13:07:16;;;;;;;;;;;;;;;;;;5893857;23;19936;-84
2023/01/19 13:09:47;;;;;;;;;;;;;;;;;;5065964;28;19917;-83
2023/01/19 13:12:19;;;;;;;;;;;;;;;;;;5735007;23;19924;-84
2023/01/19 13:33:47;;;;;;;;;;;;;;;;;;5322153;23;19955;-83
2023/01/19 13:36:13;;;;;;;;;;;;;;;;;;5061814;28;19972;-82
2023/01/19 13:38:42;;;;;;;;;;;;;;;;;;5079171;28;19913;-82
2023/01/19 13:41:08;;;;;;;;;;;;;;;;;;5079859;28;19901;-83
2023/01/19 13:43:34;;;;;;;;;;;;;;;;;;5043190;28;19913;-84
2023/01/19 13:46:02;;;;;;;;;;;;;;;;;;5058517;28;19913;-81
2023/01/19 13:48:29;;;;;;;;;;;;;;;;;;5059757;28;19913;-83
2023/01/19 13:50:54;;;;;;;;;;;;;;;;;;5060690;28;19932;-83
2023/01/19 13:53:23;;;;;;;;;;;;;;;;;;5043082;28;19925;-84
2023/01/19 13:55:51;;;;;;;;;;;;;;;;;;5044247;28;20008;-83
2023/01/19 13:58:17;;;;;;;;;;;;;;;;;;5047019;28;19901;-84
2023/01/19 14:00:49;;;;;;;;;;;;;;;;;;5063390;28;19975;-83
2023/01/19 14:03:22;;;;;;;;;;;;;;;;;;5062821;28;19928;-84
2023/01/19 14:05:51;;;;;;;;;;;;;;;;;;5064405;28;19923;-84
2023/01/19 14:11:12;;;;;;;;;;;;;;;;;;;;;
2023/01/19 14:24:38;;;;;;;;;;;;;;;;;;5998726;23;20710;-83
2023/01/19 14:30:05;;;;;;;;;;;;;;;;;;6041556;23;20933;-85
2023/01/19 14:52:20;;;;;;;;;;;;;;;;;;5873816;23;19923;-85
2023/01/19 14:54:51;;;;;;;;;;;;;;;;;;5206985;23;19909;-85
2023/01/19 15:08:39;;;;;;;;;;;;;;;;;;5711466;23;19926;-82
2023/01/19 15:11:13;;;;;;;;;;;;;;;;;;5001911;28;19918;-83
2023/01/19 15:13:42;;;;;;;;;;;;;;;;;;5002542;28;19924;-82
2023/01/19 15:16:08;;;;;;;;;;;;;;;;;;5036281;28;19925;-83
2023/01/19 15:18:46;;;;;;;;;;;;;;;;;;4987726;28;19936;-82
2023/01/19 15:21:25;;;;;;;;;;;;;;;;;;5003231;28;19935;-81
2023/01/19 15:23:52;;;;;;;;;;;;;;;;;;5000344;28;19913;-83
2023/01/19 15:26:29;;;;;;;;;;;;;;;;;;5020025;28;19897;-83
2023/01/19 15:28:58;;;;;;;;;;;;;;;;;;5018864;28;19913;-83
2023/01/19 15:31:24;;;;;;;;;;;;;;;;;;5018029;28;19920;-83
2023/01/19 15:33:50;;;;;;;;;;;;;;;;;;5017977;23;19930;-78
2023/01/19 15:36:15;;;;;;;;;;;;;;;;;;4983257;28;19920;-79
2023/01/19 15:38:41;;;;;;;;;;;;;;;;;;4985401;28;19963;-79
2023/01/19 15:41:06;;;;;;;;;;;;;;;;;;5017079;28;20000;-78
2023/01/19 15:43:32;;;;;;;;;;;;;;;;;;4998665;28;20347;-78
2023/01/19 15:45:57;;;;;;;;;;;;;;;;;;5015969;28;20378;-78
2023/01/19 15:48:23;;;;;;;;;;;;;;;;;;5016549;28;19952;-79
2023/01/19 15:50:48;;;;;;;;;;;;;;;;;;5015537;28;20314;-79
2023/01/19 15:53:13;;;;;;;;;;;;;;;;;;4998099;28;20000;-79
2023/01/19 15:55:39;;;;;;;;;;;;;;;;;;5014825;28;20068;-79
2023/01/19 15:58:05;;;;;;;;;;;;;;;;;;5015121;28;19936;-79
2023/01/19 16:00:30;;;;;;;;;;;;;;;;;;4980984;28;20298;-78
2023/01/19 16:02:55;;;;;;;;;;;;;;;;;;5014689;28;19914;-79
2023/01/19 16:05:21;;;;;;;;;;;;;;;;;;4997108;28;19913;-78
2023/01/19 16:07:46;;;;;;;;;;;;;;;;;;5014551;28;19920;-78
2023/01/19 16:10:12;;;;;;;;;;;;;;;;;;5014515;28;19983;-78
2023/01/19 16:12:37;;;;;;;;;;;;;;;;;;4998172;28;20432;-79
2023/01/19 16:15:03;;;;;;;;;;;;;;;;;;4997791;28;20038;-78
2023/01/19 16:17:28;;;;;;;;;;;;;;;;;;4997140;28;19913;-79
2023/01/19 16:19:54;;;;;;;;;;;;;;;;;;4997674;28;19913;-79
2023/01/19 16:22:19;;;;;;;;;;;;;;;;;;5015092;28;20545;-78
2023/01/19 16:24:45;;;;;;;;;;;;;;;;;;5015311;28;19936;-78
2023/01/19 16:27:10;;;;;;;;;;;;;;;;;;4997860;28;19921;-78
2023/01/19 16:29:35;;;;;;;;;;;;;;;;;;4998172;28;19917;-79
2023/01/19 16:32:01;;;;;;;;;;;;;;;;;;5015163;28;19960;-78
2023/01/19 16:34:26;;;;;;;;;;;;;;;;;;5015093;28;19918;-79
2023/01/19 16:36:51;;;;;;;;;;;;;;;;;;4980947;28;19914;-79
2023/01/19 16:39:17;;;;;;;;;;;;;;;;;;4996862;28;19917;-79
2023/01/19 16:41:42;;;;;;;;;;;;;;;;;;4980405;28;19960;-79
2023/01/19 16:44:08;;;;;;;;;;;;;;;;;;5015094;28;19909;-79
2023/01/19 16:46:34;;;;;;;;;;;;;;;;;;5015976;28;19914;-79
2023/01/19 16:48:59;;;;;;;;;;;;;;;;;;4980601;28;19913;-78
2023/01/19 16:51:24;;;;;;;;;;;;;;;;;;5014232;28;19951;-79
2023/01/19 16:53:50;;;;;;;;;;;;;;;;;;5014858;28;20394;-79
2023/01/19 16:56:15;;;;;;;;;;;;;;;;;;4981420;28;19913;-78
2023/01/19 16:58:41;;;;;;;;;;;;;;;;;;4981262;28;19914;-79
2023/01/19 17:01:07;;;;;;;;;;;;;;;;;;5016598;28;19914;-79
2023/01/19 17:03:32;;;;;;;;;;;;;;;;;;4983139;28;20260;-79
2023/01/19 17:05:57;;;;;;;;;;;;;;;;;;5003275;28;20289;-78
2023/01/19 17:08:23;;;;;;;;;;;;;;;;;;5022658;28;20009;-78
2023/01/19 17:10:48;;;;;;;;;;;;;;;;;;5008913;28;19944;-78
2023/01/19 17:13:14;;;;;;;;;;;;;;;;;;5011903;28;19914;-79
2023/01/19 17:15:39;;;;;;;;;;;;;;;;;;5017607;28;19924;-79
2023/01/19 17:18:05;;;;;;;;;;;;;;;;;;5008327;28;19914;-78
2023/01/19 17:20:30;;;;;;;;;;;;;;;;;;5029318;28;20386;-78
2023/01/19 17:22:55;;;;;;;;;;;;;;;;;;5019451;28;19940;-78
2023/01/19 17:25:21;;;;;;;;;;;;;;;;;;5016570;28;19924;-79
2023/01/19 17:27:46;;;;;;;;;;;;;;;;;;5031589;28;20386;-79
2023/01/19 17:30:12;;;;;;;;;;;;;;;;;;5033063;28;19932;-78
2023/01/19 17:32:37;;;;;;;;;;;;;;;;;;5011451;28;19921;-79
2023/01/19 17:35:03;;;;;;;;;;;;;;;;;;5021204;28;19924;-78
2023/01/19 17:37:28;;;;;;;;;;;;;;;;;;4988812;28;20304;-80
2023/01/19 17:39:53;;;;;;;;;;;;;;;;;;5003961;28;20283;-79
2023/01/19 17:42:19;;;;;;;;;;;;;;;;;;5023227;28;19918;-79
2023/01/19 17:44:44;;;;;;;;;;;;;;;;;;5022555;28;19999;-79
2023/01/19 17:47:10;;;;;;;;;;;;;;;;;;5021788;28;19914;-79
2023/01/19 17:49:35;;;;;;;;;;;;;;;;;;5021349;28;19972;-79
2023/01/19 17:52:01;;;;;;;;;;;;;;;;;;5021488;28;19914;-82
2023/01/19 17:54:26;;;;;;;;;;;;;;;;;;5004261;28;20337;-80
2023/01/19 17:56:52;;;;;;;;;;;;;;;;;;5021859;28;19996;-80
2023/01/19 17:59:17;;;;;;;;;;;;;;;;;;5025531;28;19914;-85
2023/01/19 18:01:45;;;;;;;;;;;;;;;;;;5003133;28;19910;-84
2023/01/19 18:04:11;;;;;;;;;;;;;;;;;;4985116;28;19937;-84
2023/01/19 18:06:37;;;;;;;;;;;;;;;;;;4978840;28;19921;-78
2023/01/19 18:09:03;;;;;;;;;;;;;;;;;;5021324;28;20390;-78
2023/01/19 18:11:29;;;;;;;;;;;;;;;;;;5018818;28;19914;-79
2023/01/19 18:13:54;;;;;;;;;;;;;;;;;;4968096;28;19918;-77
2023/01/19 18:16:20;;;;;;;;;;;;;;;;;;5016654;28;19917;-77
2023/01/19 19:56:24;;;;;;;;;;;;;;;;;;5645087;23;19941;-83
2023/01/19 21:11:36;;;;;;;;;;;;;;;;;;5302446;23;20314;-80
2023/01/19 21:14:01;;;;;;;;;;;;;;;;;;4984186;28;19917;-81
2023/01/19 21:16:27;;;;;;;;;;;;;;;;;;4964026;28;19921;-81
2023/01/19 21:18:52;;;;;;;;;;;;;;;;;;4965778;28;19918;-81
2023/01/19 21:21:17;;;;;;;;;;;;;;;;;;5011141;28;20298;-80
2023/01/19 21:23:43;;;;;;;;;;;;;;;;;;4993500;28;19913;-80
2023/01/19 21:26:08;;;;;;;;;;;;;;;;;;4976589;28;20386;-81
2023/01/19 21:28:34;;;;;;;;;;;;;;;;;;4986829;28;19914;-81
2023/01/19 21:30:59;;;;;;;;;;;;;;;;;;4981573;28;19996;-81
2023/01/19 21:33:25;;;;;;;;;;;;;;;;;;5005199;28;19940;-81
2023/01/19 21:35:50;;;;;;;;;;;;;;;;;;4990331;28;19921;-81
2023/01/19 21:38:15;;;;;;;;;;;;;;;;;;5011079;28;19929;-81
2023/01/19 21:40:41;;;;;;;;;;;;;;;;;;4981957;28;19920;-81
2023/01/19 21:43:06;;;;;;;;;;;;;;;;;;5000085;28;19944;-80
2023/01/19 21:45:31;;;;;;;;;;;;;;;;;;5000874;28;20017;-80
2023/01/19 21:47:57;;;;;;;;;;;;;;;;;;4992171;28;19913;-81
2023/01/19 21:50:22;;;;;;;;;;;;;;;;;;4993936;28;19920;-81
2023/01/19 21:52:48;;;;;;;;;;;;;;;;;;5018982;28;19913;-81
2023/01/19 21:55:13;;;;;;;;;;;;;;;;;;4984607;28;19957;-79
2023/01/19 21:57:38;;;;;;;;;;;;;;;;;;5011273;28;20457;-81
2023/01/19 22:00:05;;;;;;;;;;;;;;;;;;5009818;28;20313;-82
2023/01/19 22:02:33;;;;;;;;;;;;;;;;;;4988259;28;19964;-81
2023/01/19 22:04:58;;;;;;;;;;;;;;;;;;4997627;28;20004;-80
2023/01/19 22:07:24;;;;;;;;;;;;;;;;;;5002872;28;19925;-81
2023/01/19 22:09:49;;;;;;;;;;;;;;;;;;5007951;28;19921;-80
2023/01/19 22:12:15;;;;;;;;;;;;;;;;;;4994075;28;19924;-82
2023/01/19 22:14:43;;;;;;;;;;;;;;;;;;5001754;28;19917;-81
2023/01/19 22:17:09;;;;;;;;;;;;;;;;;;4982637;28;19940;-81
2023/01/19 22:19:34;;;;;;;;;;;;;;;;;;4988889;28;19918;-82
2023/01/19 22:21:59;;;;;;;;;;;;;;;;;;4992047;28;19959;-81
2023/01/19 22:24:25;;;;;;;;;;;;;;;;;;5011893;28;19913;-80
2023/01/19 22:26:50;;;;;;;;;;;;;;;;;;5017983;28;19913;-81
2023/01/19 22:29:16;;;;;;;;;;;;;;;;;;4998523;28;19925;-81
2023/01/19 22:31:41;;;;;;;;;;;;;;;;;;4998002;28;20016;-81
2023/01/19 22:34:09;;;;;;;;;;;;;;;;;;4999108;28;19918;-81
2023/01/19 22:36:34;;;;;;;;;;;;;;;;;;5000067;28;19914;-81
2023/01/19 22:38:59;;;;;;;;;;;;;;;;;;5002631;28;19921;-81
2023/01/19 22:41:25;;;;;;;;;;;;;;;;;;5002981;28;19921;-81
2023/01/19 22:43:51;;;;;;;;;;;;;;;;;;4987723;28;19921;-82
2023/01/19 22:46:16;;;;;;;;;;;;;;;;;;4967664;28;19920;-82
2023/01/19 22:48:41;;;;;;;;;;;;;;;;;;5019001;28;19913;-81
2023/01/19 22:51:07;;;;;;;;;;;;;;;;;;5002086;28;19947;-80
2023/01/19 22:53:32;;;;;;;;;;;;;;;;;;5018778;28;20000;-81
2023/01/19 22:55:58;;;;;;;;;;;;;;;;;;5018331;28;19914;-80
2023/01/19 22:58:23;;;;;;;;;;;;;;;;;;5017698;28;19920;-81
2023/01/19 23:00:48;;;;;;;;;;;;;;;;;;5002518;28;19949;-81
2023/01/19 23:03:14;;;;;;;;;;;;;;;;;;4986881;28;19913;-81
2023/01/19 23:05:39;;;;;;;;;;;;;;;;;;4983018;28;19920;-81
2023/01/19 23:08:05;;;;;;;;;;;;;;;;;;4983909;28;20136;-80
2023/01/19 23:10:30;;;;;;;;;;;;;;;;;;4985051;28;20272;-82
2023/01/19 23:12:55;;;;;;;;;;;;;;;;;;5012451;28;19933;-83
2023/01/19 23:15:21;;;;;;;;;;;;;;;;;;5013477;28;20375;-82
2023/01/19 23:17:51;;;;;;;;;;;;;;;;;;5015488;28;20284;-83
2023/01/19 23:20:17;;;;;;;;;;;;;;;;;;4980081;28;19921;-82